Terminal Aerodrome Forecast
Issued by NWS Burlington, VT

Home | Current Version | Previous Version | Text Only | Print | Product List | Glossary On
Versions: 1 2 3 4 5 6 7 8 9 10 11 12 13 14 15
832
FTUS41 KBTV 070543
TAFBTV
TAF
KBTV 070543Z 0706/0806 16004KT P6SM VCSH OVC045
     FM070630 14004KT 2SM -SN BR SCT025 OVC035
     FM070800 15005KT 1SM -SN BR OVC025
     FM071300 17009KT P6SM VCSH OVC020
     FM071700 19010G16KT P6SM OVC020
     FM080100 22004KT P6SM BKN035=

USA.gov is the U.S. government's official web portal to all federal, state and local government web resources and services.